sensor_id;sensor_type;location;lat;lon;timestamp;temperature;humidity
15343;DHT22;7771;48.478;8.936;2022-08-04T00:04:34;22.70;99.90
15343;DHT22;7771;48.478;8.936;2022-08-04T00:07:04;22.70;99.90
15343;DHT22;7771;48.478;8.936;2022-08-04T00:09:29;22.60;99.90
15343;DHT22;7771;48.478;8.936;2022-08-04T00:11:57;22.60;99.90
15343;DHT22;7771;48.478;8.936;2022-08-04T00:14:23;22.60;99.90
15343;DHT22;7771;48.478;8.936;2022-08-04T00:16:50;22.60;99.90
15343;DHT22;7771;48.478;8.936;2022-08-04T00:19:19;22.50;99.90
15343;DHT22;7771;48.478;8.936;2022-08-04T00:21:46;22.60;99.90
15343;DHT22;7771;48.478;8.936;2022-08-04T00:24:12;22.50;99.90
15343;DHT22;7771;48.478;8.936;2022-08-04T00:26:40;22.50;99.90
15343;DHT22;7771;48.478;8.936;2022-08-04T00:29:07;22.50;99.90
15343;DHT22;7771;48.478;8.936;2022-08-04T00:31:34;22.50;99.90
15343;DHT22;7771;48.478;8.936;2022-08-04T00:34:00;22.40;99.90
15343;DHT22;7771;48.478;8.936;2022-08-04T00:36:27;22.40;99.90
15343;DHT22;7771;48.478;8.936;2022-08-04T00:38:54;22.40;99.90
15343;DHT22;7771;48.478;8.936;2022-08-04T00:41:26;22.40;99.90
15343;DHT22;7771;48.478;8.936;2022-08-04T00:44:04;22.40;99.90
15343;DHT22;7771;48.478;8.936;2022-08-04T00:46:33;22.30;99.90
15343;DHT22;7771;48.478;8.936;2022-08-04T00:51:48;22.30;99.90
15343;DHT22;7771;48.478;8.936;2022-08-04T00:54:20;22.20;99.90
15343;DHT22;7771;48.478;8.936;2022-08-04T00:57:05;22.20;99.90
15343;DHT22;7771;48.478;8.936;2022-08-04T00:59:36;22.10;99.90
15343;DHT22;7771;48.478;8.936;2022-08-04T01:05:54;22.00;99.90
15343;DHT22;7771;48.478;8.936;2022-08-04T01:07:46;22.00;99.90
15343;DHT22;7771;48.478;8.936;2022-08-04T01:10:31;22.00;99.90
15343;DHT22;7771;48.478;8.936;2022-08-04T01:15:39;21.90;99.90
15343;DHT22;7771;48.478;8.936;2022-08-04T01:18:05;21.90;99.90
15343;DHT22;7771;48.478;8.936;2022-08-04T01:20:33;21.90;99.90
15343;DHT22;7771;48.478;8.936;2022-08-04T01:26:07;21.80;99.90
15343;DHT22;7771;48.478;8.936;2022-08-04T01:31:16;21.80;99.90
15343;DHT22;7771;48.478;8.936;2022-08-04T01:33:40;21.70;99.90
15343;DHT22;7771;48.478;8.936;2022-08-04T01:36:07;21.70;99.90
15343;DHT22;7771;48.478;8.936;2022-08-04T01:38:34;21.70;99.90
15343;DHT22;7771;48.478;8.936;2022-08-04T01:41:03;21.70;99.90
15343;DHT22;7771;48.478;8.936;2022-08-04T01:43:29;21.70;99.90
15343;DHT22;7771;48.478;8.936;2022-08-04T01:45:57;21.70;99.90
15343;DHT22;7771;48.478;8.936;2022-08-04T01:48:23;21.70;99.90
15343;DHT22;7771;48.478;8.936;2022-08-04T01:50:51;21.60;99.90
15343;DHT22;7771;48.478;8.936;2022-08-04T01:53:18;21.60;99.90
15343;DHT22;7771;48.478;8.936;2022-08-04T01:55:45;21.50;99.90
15343;DHT22;7771;48.478;8.936;2022-08-04T01:58:11;21.50;99.90
15343;DHT22;7771;48.478;8.936;2022-08-04T02:00:38;21.40;99.90
15343;DHT22;7771;48.478;8.936;2022-08-04T02:03:04;21.40;99.90
15343;DHT22;7771;48.478;8.936;2022-08-04T02:05:32;21.40;99.90
15343;DHT22;7771;48.478;8.936;2022-08-04T02:08:09;21.30;99.90
15343;DHT22;7771;48.478;8.936;2022-08-04T02:10:45;21.30;99.90
15343;DHT22;7771;48.478;8.936;2022-08-04T02:13:10;21.30;99.90
15343;DHT22;7771;48.478;8.936;2022-08-04T02:15:45;21.20;99.90
15343;DHT22;7771;48.478;8.936;2022-08-04T02:18:11;21.20;99.90
15343;DHT22;7771;48.478;8.936;2022-08-04T02:20:37;21.20;99.90
15343;DHT22;7771;48.478;8.936;2022-08-04T02:23:04;21.20;99.90
15343;DHT22;7771;48.478;8.936;2022-08-04T02:25:31;21.10;99.90
15343;DHT22;7771;48.478;8.936;2022-08-04T02:28:03;21.10;99.90
15343;DHT22;7771;48.478;8.936;2022-08-04T02:30:33;21.00;99.90
15343;DHT22;7771;48.478;8.936;2022-08-04T02:32:58;21.00;99.90
15343;DHT22;7771;48.478;8.936;2022-08-04T02:35:24;21.00;99.90
15343;DHT22;7771;48.478;8.936;2022-08-04T02:37:54;20.90;99.90
15343;DHT22;7771;48.478;8.936;2022-08-04T02:40:19;20.90;99.90
15343;DHT22;7771;48.478;8.936;2022-08-04T02:42:44;20.80;99.90
15343;DHT22;7771;48.478;8.936;2022-08-04T02:45:11;20.80;99.90
15343;DHT22;7771;48.478;8.936;2022-08-04T02:47:38;20.80;99.90
15343;DHT22;7771;48.478;8.936;2022-08-04T02:50:05;20.70;99.90
15343;DHT22;7771;48.478;8.936;2022-08-04T02:52:31;20.70;99.90
15343;DHT22;7771;48.478;8.936;2022-08-04T02:54:58;20.70;99.90
15343;DHT22;7771;48.478;8.936;2022-08-04T02:57:26;20.70;99.90
15343;DHT22;7771;48.478;8.936;2022-08-04T03:00:12;20.60;99.90
15343;DHT22;7771;48.478;8.936;2022-08-04T03:03:00;20.60;99.90
15343;DHT22;7771;48.478;8.936;2022-08-04T03:05:25;20.60;99.90
15343;DHT22;7771;48.478;8.936;2022-08-04T03:07:57;20.50;99.90
15343;DHT22;7771;48.478;8.936;2022-08-04T03:10:29;20.50;99.90
15343;DHT22;7771;48.478;8.936;2022-08-04T03:13:09;20.50;99.90
15343;DHT22;7771;48.478;8.936;2022-08-04T03:18:33;20.50;99.90
15343;DHT22;7771;48.478;8.936;2022-08-04T03:21:21;20.50;99.90
15343;DHT22;7771;48.478;8.936;2022-08-04T03:23:59;20.50;99.90
15343;DHT22;7771;48.478;8.936;2022-08-04T03:26:45;20.40;99.90
15343;DHT22;7771;48.478;8.936;2022-08-04T03:32:06;20.30;99.90
15343;DHT22;7771;48.478;8.936;2022-08-04T03:35:22;20.30;99.90
15343;DHT22;7771;48.478;8.936;2022-08-04T03:37:36;20.30;99.90
15343;DHT22;7771;48.478;8.936;2022-08-04T03:40:15;20.20;99.90
15343;DHT22;7771;48.478;8.936;2022-08-04T03:42:58;20.20;99.90
15343;DHT22;7771;48.478;8.936;2022-08-04T03:50:52;20.20;99.90
15343;DHT22;7771;48.478;8.936;2022-08-04T03:53:30;20.20;99.90
15343;DHT22;7771;48.478;8.936;2022-08-04T03:56:24;20.20;99.90
15343;DHT22;7771;48.478;8.936;2022-08-04T04:01:48;20.20;99.90
15343;DHT22;7771;48.478;8.936;2022-08-04T04:04:36;20.10;99.90
15343;DHT22;7771;48.478;8.936;2022-08-04T04:12:29;20.10;99.90
15343;DHT22;7771;48.478;8.936;2022-08-04T04:15:00;20.10;99.90
15343;DHT22;7771;48.478;8.936;2022-08-04T04:20:22;20.00;99.90
15343;DHT22;7771;48.478;8.936;2022-08-04T04:22:57;20.00;99.90
15343;DHT22;7771;48.478;8.936;2022-08-04T04:25:30;20.00;99.90
15343;DHT22;7771;48.478;8.936;2022-08-04T04:28:07;20.00;99.90
15343;DHT22;7771;48.478;8.936;2022-08-04T04:30:31;19.90;99.90
15343;DHT22;7771;48.478;8.936;2022-08-04T04:33:06;20.00;99.90
15343;DHT22;7771;48.478;8.936;2022-08-04T04:35:37;20.00;99.90
15343;DHT22;7771;48.478;8.936;2022-08-04T04:43:33;20.00;99.90
15343;DHT22;7771;48.478;8.936;2022-08-04T04:46:02;20.00;99.90
15343;DHT22;7771;48.478;8.936;2022-08-04T04:49:21;20.00;99.90
15343;DHT22;7771;48.478;8.936;2022-08-04T04:51:32;20.00;99.90
15343;DHT22;7771;48.478;8.936;2022-08-04T04:54:03;20.10;99.90
15343;DHT22;7771;48.478;8.936;2022-08-04T04:56:39;20.10;99.90
15343;DHT22;7771;48.478;8.936;2022-08-04T04:59:04;20.10;99.90
15343;DHT22;7771;48.478;8.936;2022-08-04T05:04:24;20.10;99.90
15343;DHT22;7771;48.478;8.936;2022-08-04T05:07:09;20.20;99.90
15343;DHT22;7771;48.478;8.936;2022-08-04T05:09:44;20.20;99.90
15343;DHT22;7771;48.478;8.936;2022-08-04T05:14:55;20.20;99.90
15343;DHT22;7771;48.478;8.936;2022-08-04T05:17:34;20.30;99.90
15343;DHT22;7771;48.478;8.936;2022-08-04T05:20:18;20.30;99.90
15343;DHT22;7771;48.478;8.936;2022-08-04T05:22:47;20.40;99.90
15343;DHT22;7771;48.478;8.936;2022-08-04T05:25:18;20.40;99.90
15343;DHT22;7771;48.478;8.936;2022-08-04T05:27:48;20.50;99.90
15343;DHT22;7771;48.478;8.936;2022-08-04T05:30:12;20.50;99.90
15343;DHT22;7771;48.478;8.936;2022-08-04T05:32:45;20.50;99.90
15343;DHT22;7771;48.478;8.936;2022-08-04T05:35:11;20.50;99.90
15343;DHT22;7771;48.478;8.936;2022-08-04T05:37:37;20.60;99.90
15343;DHT22;7771;48.478;8.936;2022-08-04T05:40:04;20.60;99.90
15343;DHT22;7771;48.478;8.936;2022-08-04T05:42:31;20.60;99.90
15343;DHT22;7771;48.478;8.936;2022-08-04T05:44:58;20.70;99.90
15343;DHT22;7771;48.478;8.936;2022-08-04T05:47:24;20.70;99.90
15343;DHT22;7771;48.478;8.936;2022-08-04T05:49:51;20.80;99.90
15343;DHT22;7771;48.478;8.936;2022-08-04T05:52:20;20.90;99.90
15343;DHT22;7771;48.478;8.936;2022-08-04T05:54:46;20.90;99.90
15343;DHT22;7771;48.478;8.936;2022-08-04T05:57:13;21.00;99.90
15343;DHT22;7771;48.478;8.936;2022-08-04T05:59:40;21.10;99.90
15343;DHT22;7771;48.478;8.936;2022-08-04T06:02:06;21.10;99.90
15343;DHT22;7771;48.478;8.936;2022-08-04T06:04:34;21.10;99.90
15343;DHT22;7771;48.478;8.936;2022-08-04T06:07:01;21.30;99.90
15343;DHT22;7771;48.478;8.936;2022-08-04T06:09:29;21.40;99.90
15343;DHT22;7771;48.478;8.936;2022-08-04T06:12:00;21.50;99.90
15343;DHT22;7771;48.478;8.936;2022-08-04T06:14:26;21.50;99.90
15343;DHT22;7771;48.478;8.936;2022-08-04T06:16:53;21.60;99.90
15343;DHT22;7771;48.478;8.936;2022-08-04T06:19:20;21.70;99.90
15343;DHT22;7771;48.478;8.936;2022-08-04T06:21:47;21.70;99.90
15343;DHT22;7771;48.478;8.936;2022-08-04T06:24:15;21.70;99.90
15343;DHT22;7771;48.478;8.936;2022-08-04T06:26:41;21.90;99.90
15343;DHT22;7771;48.478;8.936;2022-08-04T06:29:07;21.90;99.90
15343;DHT22;7771;48.478;8.936;2022-08-04T06:31:35;22.10;99.90
15343;DHT22;7771;48.478;8.936;2022-08-04T06:34:09;22.20;99.90
15343;DHT22;7771;48.478;8.936;2022-08-04T06:36:35;22.20;99.90
15343;DHT22;7771;48.478;8.936;2022-08-04T06:39:02;22.30;99.90
15343;DHT22;7771;48.478;8.936;2022-08-04T06:41:28;22.50;99.90
15343;DHT22;7771;48.478;8.936;2022-08-04T06:43:58;22.50;99.90
15343;DHT22;7771;48.478;8.936;2022-08-04T06:46:22;22.60;99.90
15343;DHT22;7771;48.478;8.936;2022-08-04T06:48:50;22.90;99.90
15343;DHT22;7771;48.478;8.936;2022-08-04T06:51:21;23.10;99.90
15343;DHT22;7771;48.478;8.936;2022-08-04T06:53:47;23.20;99.90
15343;DHT22;7771;48.478;8.936;2022-08-04T06:56:14;23.20;99.90
15343;DHT22;7771;48.478;8.936;2022-08-04T06:58:40;23.60;99.90
15343;DHT22;7771;48.478;8.936;2022-08-04T07:01:07;23.70;99.90
15343;DHT22;7771;48.478;8.936;2022-08-04T07:03:33;23.90;99.90
15343;DHT22;7771;48.478;8.936;2022-08-04T07:06:01;24.10;99.90
15343;DHT22;7771;48.478;8.936;2022-08-04T07:08:28;24.40;99.90
15343;DHT22;7771;48.478;8.936;2022-08-04T07:10:54;24.90;99.90
15343;DHT22;7771;48.478;8.936;2022-08-04T07:13:21;25.00;99.90
15343;DHT22;7771;48.478;8.936;2022-08-04T07:15:47;26.20;99.90
15343;DHT22;7771;48.478;8.936;2022-08-04T07:18:15;29.30;99.90
15343;DHT22;7771;48.478;8.936;2022-08-04T07:20:43;30.90;96.20
15343;DHT22;7771;48.478;8.936;2022-08-04T07:23:10;32.20;92.80
15343;DHT22;7771;48.478;8.936;2022-08-04T07:25:37;33.50;89.90
15343;DHT22;7771;48.478;8.936;2022-08-04T07:28:04;34.60;83.00
15343;DHT22;7771;48.478;8.936;2022-08-04T07:30:31;34.60;83.00
15343;DHT22;7771;48.478;8.936;2022-08-04T07:32:57;35.60;77.70
15343;DHT22;7771;48.478;8.936;2022-08-04T07:35:24;36.50;74.10
15343;DHT22;7771;48.478;8.936;2022-08-04T07:37:50;37.40;71.40
15343;DHT22;7771;48.478;8.936;2022-08-04T07:40:17;38.10;67.90
15343;DHT22;7771;48.478;8.936;2022-08-04T07:42:44;38.80;65.10
15343;DHT22;7771;48.478;8.936;2022-08-04T07:45:10;39.40;63.60
15343;DHT22;7771;48.478;8.936;2022-08-04T07:47:37;39.90;61.60
15343;DHT22;7771;48.478;8.936;2022-08-04T07:50:07;40.70;58.90
15343;DHT22;7771;48.478;8.936;2022-08-04T07:52:31;40.70;58.90
15343;DHT22;7771;48.478;8.936;2022-08-04T07:54:58;41.10;58.00
15343;DHT22;7771;48.478;8.936;2022-08-04T07:57:24;41.40;57.30
15343;DHT22;7771;48.478;8.936;2022-08-04T07:59:51;41.90;56.20
15343;DHT22;7771;48.478;8.936;2022-08-04T08:02:18;42.40;54.70
15343;DHT22;7771;48.478;8.936;2022-08-04T08:04:46;42.80;54.00
15343;DHT22;7771;48.478;8.936;2022-08-04T08:07:13;42.80;53.60
15343;DHT22;7771;48.478;8.936;2022-08-04T08:09:41;42.60;52.90
15343;DHT22;7771;48.478;8.936;2022-08-04T08:12:08;42.10;52.80
15343;DHT22;7771;48.478;8.936;2022-08-04T08:14:35;41.40;52.90
15343;DHT22;7771;48.478;8.936;2022-08-04T08:17:04;40.40;53.50
15343;DHT22;7771;48.478;8.936;2022-08-04T08:19:30;40.30;53.50
15343;DHT22;7771;48.478;8.936;2022-08-04T08:21:56;39.50;54.50
15343;DHT22;7771;48.478;8.936;2022-08-04T08:24:22;38.70;55.40
15343;DHT22;7771;48.478;8.936;2022-08-04T08:26:49;38.00;56.40
15343;DHT22;7771;48.478;8.936;2022-08-04T08:29:16;37.10;58.30
15343;DHT22;7771;48.478;8.936;2022-08-04T08:31:44;36.80;58.40
15343;DHT22;7771;48.478;8.936;2022-08-04T08:34:11;36.50;58.70
15343;DHT22;7771;48.478;8.936;2022-08-04T08:36:42;36.30;59.20
15343;DHT22;7771;48.478;8.936;2022-08-04T08:39:17;36.30;59.20
15343;DHT22;7771;48.478;8.936;2022-08-04T08:42:11;35.90;59.90
15343;DHT22;7771;48.478;8.936;2022-08-04T08:44:50;35.80;59.80
15343;DHT22;7771;48.478;8.936;2022-08-04T08:47:34;35.80;60.00
15343;DHT22;7771;48.478;8.936;2022-08-04T08:50:10;35.70;60.50
15343;DHT22;7771;48.478;8.936;2022-08-04T08:52:46;35.60;60.40
15343;DHT22;7771;48.478;8.936;2022-08-04T08:55:18;35.60;60.80
15343;DHT22;7771;48.478;8.936;2022-08-04T09:00:19;35.70;60.20
15343;DHT22;7771;48.478;8.936;2022-08-04T09:05:39;35.70;60.40
15343;DHT22;7771;48.478;8.936;2022-08-04T09:08:28;35.70;60.90
15343;DHT22;7771;48.478;8.936;2022-08-04T09:10:54;35.80;61.10
15343;DHT22;7771;48.478;8.936;2022-08-04T09:13:23;35.90;61.00
15343;DHT22;7771;48.478;8.936;2022-08-04T09:16:16;35.90;60.30
15343;DHT22;7771;48.478;8.936;2022-08-04T09:18:43;36.00;61.20
15343;DHT22;7771;48.478;8.936;2022-08-04T09:21:44;36.10;60.00
15343;DHT22;7771;48.478;8.936;2022-08-04T09:24:07;36.10;60.00
15343;DHT22;7771;48.478;8.936;2022-08-04T09:26:33;36.20;59.80
15343;DHT22;7771;48.478;8.936;2022-08-04T09:29:11;36.20;59.00
15343;DHT22;7771;48.478;8.936;2022-08-04T09:34:51;36.50;58.40
15343;DHT22;7771;48.478;8.936;2022-08-04T09:37:30;36.60;58.30
15343;DHT22;7771;48.478;8.936;2022-08-04T09:42:53;36.80;57.30
15343;DHT22;7771;48.478;8.936;2022-08-04T09:45:23;36.80;57.20
15343;DHT22;7771;48.478;8.936;2022-08-04T09:47:48;36.90;57.20
15343;DHT22;7771;48.478;8.936;2022-08-04T09:50:33;37.10;57.20
15343;DHT22;7771;48.478;8.936;2022-08-04T09:53:28;37.10;56.70
15343;DHT22;7771;48.478;8.936;2022-08-04T09:55:54;37.20;56.10
15343;DHT22;7771;48.478;8.936;2022-08-04T10:00:52;37.40;54.70
15343;DHT22;7771;48.478;8.936;2022-08-04T10:03:17;37.50;53.70
15343;DHT22;7771;48.478;8.936;2022-08-04T10:05:59;37.60;52.70
15343;DHT22;7771;48.478;8.936;2022-08-04T10:08:28;37.60;51.90
15343;DHT22;7771;48.478;8.936;2022-08-04T10:11:03;37.60;51.10
15343;DHT22;7771;48.478;8.936;2022-08-04T10:13:39;37.60;51.10
15343;DHT22;7771;48.478;8.936;2022-08-04T10:16:10;37.70;50.60
15343;DHT22;7771;48.478;8.936;2022-08-04T10:24:04;37.60;50.80
15343;DHT22;7771;48.478;8.936;2022-08-04T10:26:36;37.60;50.70
15343;DHT22;7771;48.478;8.936;2022-08-04T10:29:03;37.60;50.70
15343;DHT22;7771;48.478;8.936;2022-08-04T10:31:29;37.60;51.00
15343;DHT22;7771;48.478;8.936;2022-08-04T10:34:02;37.50;51.20
15343;DHT22;7771;48.478;8.936;2022-08-04T10:36:27;37.50;51.80
15343;DHT22;7771;48.478;8.936;2022-08-04T10:39:00;37.50;50.80
15343;DHT22;7771;48.478;8.936;2022-08-04T10:41:39;37.50;50.70
15343;DHT22;7771;48.478;8.936;2022-08-04T10:44:17;37.50;51.20
15343;DHT22;7771;48.478;8.936;2022-08-04T10:46:51;37.40;51.50
15343;DHT22;7771;48.478;8.936;2022-08-04T10:49:28;37.40;52.30
15343;DHT22;7771;48.478;8.936;2022-08-04T10:53:06;37.30;51.70
15343;DHT22;7771;48.478;8.936;2022-08-04T10:54:46;37.40;51.40
15343;DHT22;7771;48.478;8.936;2022-08-04T10:57:20;37.40;51.60
15343;DHT22;7771;48.478;8.936;2022-08-04T11:00:03;37.40;51.90
15343;DHT22;7771;48.478;8.936;2022-08-04T11:02:37;37.50;51.70
15343;DHT22;7771;48.478;8.936;2022-08-04T11:05:09;37.50;51.30
15343;DHT22;7771;48.478;8.936;2022-08-04T11:07:31;37.50;51.30
15343;DHT22;7771;48.478;8.936;2022-08-04T11:09:57;37.40;51.30
15343;DHT22;7771;48.478;8.936;2022-08-04T11:12:24;37.40;51.80
15343;DHT22;7771;48.478;8.936;2022-08-04T11:14:55;37.50;51.60
15343;DHT22;7771;48.478;8.936;2022-08-04T11:17:25;37.40;51.60
15343;DHT22;7771;48.478;8.936;2022-08-04T11:20:01;37.50;51.70
15343;DHT22;7771;48.478;8.936;2022-08-04T11:22:28;37.50;51.10
15343;DHT22;7771;48.478;8.936;2022-08-04T11:25:03;37.50;51.90
15343;DHT22;7771;48.478;8.936;2022-08-04T11:30:13;37.70;51.30
15343;DHT22;7771;48.478;8.936;2022-08-04T11:32:48;37.80;50.90
15343;DHT22;7771;48.478;8.936;2022-08-04T11:35:17;37.90;50.60
15343;DHT22;7771;48.478;8.936;2022-08-04T11:37:45;37.90;50.60
15343;DHT22;7771;48.478;8.936;2022-08-04T11:40:30;37.90;50.80
15343;DHT22;7771;48.478;8.936;2022-08-04T11:42:55;37.90;50.70
15343;DHT22;7771;48.478;8.936;2022-08-04T11:45:26;38.10;50.90
15343;DHT22;7771;48.478;8.936;2022-08-04T11:47:53;38.00;50.80
15343;DHT22;7771;48.478;8.936;2022-08-04T11:50:21;38.20;50.70
15343;DHT22;7771;48.478;8.936;2022-08-04T11:52:47;38.20;50.60
15343;DHT22;7771;48.478;8.936;2022-08-04T11:55:15;38.30;50.80
15343;DHT22;7771;48.478;8.936;2022-08-04T11:57:40;38.40;50.30
15343;DHT22;7771;48.478;8.936;2022-08-04T12:00:08;38.40;50.50
15343;DHT22;7771;48.478;8.936;2022-08-04T12:03:00;38.50;50.30
15343;DHT22;7771;48.478;8.936;2022-08-04T12:05:30;38.50;50.20
15343;DHT22;7771;48.478;8.936;2022-08-04T12:08:10;38.60;50.00
15343;DHT22;7771;48.478;8.936;2022-08-04T12:10:50;38.50;50.00
15343;DHT22;7771;48.478;8.936;2022-08-04T12:13:23;38.50;50.10
15343;DHT22;7771;48.478;8.936;2022-08-04T12:15:55;38.40;49.30
15343;DHT22;7771;48.478;8.936;2022-08-04T12:18:37;38.40;49.30
15343;DHT22;7771;48.478;8.936;2022-08-04T12:21:04;38.30;49.10
15343;DHT22;7771;48.478;8.936;2022-08-04T12:23:31;38.10;49.10
15343;DHT22;7771;48.478;8.936;2022-08-04T12:25:59;38.10;49.90
15343;DHT22;7771;48.478;8.936;2022-08-04T12:28:28;38.20;49.30
15343;DHT22;7771;48.478;8.936;2022-08-04T12:30:54;38.20;49.30
15343;DHT22;7771;48.478;8.936;2022-08-04T12:33:22;38.40;46.70
15343;DHT22;7771;48.478;8.936;2022-08-04T12:35:50;38.40;47.40
15343;DHT22;7771;48.478;8.936;2022-08-04T12:38:14;38.50;47.60
15343;DHT22;7771;48.478;8.936;2022-08-04T12:40:50;38.50;47.10
15343;DHT22;7771;48.478;8.936;2022-08-04T12:43:25;38.80;47.50
15343;DHT22;7771;48.478;8.936;2022-08-04T12:45:50;38.80;47.40
15343;DHT22;7771;48.478;8.936;2022-08-04T12:48:17;38.90;46.80
15343;DHT22;7771;48.478;8.936;2022-08-04T12:50:46;39.00;46.70
15343;DHT22;7771;48.478;8.936;2022-08-04T12:53:12;39.10;46.80
15343;DHT22;7771;48.478;8.936;2022-08-04T12:55:38;39.20;46.70
15343;DHT22;7771;48.478;8.936;2022-08-04T12:58:10;39.20;46.90
15343;DHT22;7771;48.478;8.936;2022-08-04T13:00:33;39.10;46.60
15343;DHT22;7771;48.478;8.936;2022-08-04T13:02:59;39.10;46.70
15343;DHT22;7771;48.478;8.936;2022-08-04T13:05:25;39.10;46.80
15343;DHT22;7771;48.478;8.936;2022-08-04T13:07:52;39.20;47.10
15343;DHT22;7771;48.478;8.936;2022-08-04T13:10:19;39.30;47.10
15343;DHT22;7771;48.478;8.936;2022-08-04T13:12:53;39.40;47.30
15343;DHT22;7771;48.478;8.936;2022-08-04T13:15:20;39.50;47.30
15343;DHT22;7771;48.478;8.936;2022-08-04T13:17:55;39.50;46.70
15343;DHT22;7771;48.478;8.936;2022-08-04T13:20:26;39.50;46.10
15343;DHT22;7771;48.478;8.936;2022-08-04T13:22:52;39.60;45.70
15343;DHT22;7771;48.478;8.936;2022-08-04T13:25:18;39.70;46.10
15343;DHT22;7771;48.478;8.936;2022-08-04T13:27:44;39.70;45.20
15343;DHT22;7771;48.478;8.936;2022-08-04T13:30:12;39.80;44.50
15343;DHT22;7771;48.478;8.936;2022-08-04T13:32:38;39.80;44.50
15343;DHT22;7771;48.478;8.936;2022-08-04T13:35:05;39.80;44.40
15343;DHT22;7771;48.478;8.936;2022-08-04T13:37:33;39.90;44.70
15343;DHT22;7771;48.478;8.936;2022-08-04T13:39:59;39.90;44.80
15343;DHT22;7771;48.478;8.936;2022-08-04T13:42:25;40.00;44.70
15343;DHT22;7771;48.478;8.936;2022-08-04T13:44:54;40.10;44.50
15343;DHT22;7771;48.478;8.936;2022-08-04T13:47:22;40.10;44.20
15343;DHT22;7771;48.478;8.936;2022-08-04T13:52:27;40.10;44.50
15343;DHT22;7771;48.478;8.936;2022-08-04T13:54:54;40.30;43.80
15343;DHT22;7771;48.478;8.936;2022-08-04T13:57:22;40.20;43.70
15343;DHT22;7771;48.478;8.936;2022-08-04T13:59:52;39.90;43.80
15343;DHT22;7771;48.478;8.936;2022-08-04T14:05:08;39.70;44.00
15343;DHT22;7771;48.478;8.936;2022-08-04T14:07:38;39.30;44.60
15343;DHT22;7771;48.478;8.936;2022-08-04T14:10:08;39.20;44.20
15343;DHT22;7771;48.478;8.936;2022-08-04T14:12:28;39.00;44.60
15343;DHT22;7771;48.478;8.936;2022-08-04T14:14:55;39.00;44.60
15343;DHT22;7771;48.478;8.936;2022-08-04T14:17:24;38.70;45.20
15343;DHT22;7771;48.478;8.936;2022-08-04T14:19:55;38.50;46.40
15343;DHT22;7771;48.478;8.936;2022-08-04T14:22:34;38.30;46.70
15343;DHT22;7771;48.478;8.936;2022-08-04T14:25:08;38.10;46.80
15343;DHT22;7771;48.478;8.936;2022-08-04T14:27:50;37.70;47.30
15343;DHT22;7771;48.478;8.936;2022-08-04T14:30:22;37.70;47.80
15343;DHT22;7771;48.478;8.936;2022-08-04T14:33:04;37.70;47.40
15343;DHT22;7771;48.478;8.936;2022-08-04T14:35:31;37.60;48.00
15343;DHT22;7771;48.478;8.936;2022-08-04T14:37:58;37.70;47.70
15343;DHT22;7771;48.478;8.936;2022-08-04T14:40:27;37.80;47.70
15343;DHT22;7771;48.478;8.936;2022-08-04T14:42:53;37.90;47.40
15343;DHT22;7771;48.478;8.936;2022-08-04T14:45:38;38.00;47.50
15343;DHT22;7771;48.478;8.936;2022-08-04T14:48:06;38.10;47.00
15343;DHT22;7771;48.478;8.936;2022-08-04T14:50:34;38.20;47.00
15343;DHT22;7771;48.478;8.936;2022-08-04T14:53:02;38.30;47.00
15343;DHT22;7771;48.478;8.936;2022-08-04T14:55:28;38.50;47.10
15343;DHT22;7771;48.478;8.936;2022-08-04T14:57:54;38.50;47.20
15343;DHT22;7771;48.478;8.936;2022-08-04T15:00:25;38.70;48.20
15343;DHT22;7771;48.478;8.936;2022-08-04T15:02:51;38.70;47.80
15343;DHT22;7771;48.478;8.936;2022-08-04T15:05:19;38.80;47.20
15343;DHT22;7771;48.478;8.936;2022-08-04T15:07:46;38.80;47.10
15343;DHT22;7771;48.478;8.936;2022-08-04T15:10:13;38.80;47.30
15343;DHT22;7771;48.478;8.936;2022-08-04T15:12:40;38.80;47.30
15343;DHT22;7771;48.478;8.936;2022-08-04T15:15:07;38.80;47.20
15343;DHT22;7771;48.478;8.936;2022-08-04T15:17:33;38.80;47.20
15343;DHT22;7771;48.478;8.936;2022-08-04T15:20:00;38.80;47.20
15343;DHT22;7771;48.478;8.936;2022-08-04T15:22:26;38.80;46.90
15343;DHT22;7771;48.478;8.936;2022-08-04T15:24:53;38.80;46.50
15343;DHT22;7771;48.478;8.936;2022-08-04T15:27:20;38.70;46.30
15343;DHT22;7771;48.478;8.936;2022-08-04T15:29:48;38.50;46.00
15343;DHT22;7771;48.478;8.936;2022-08-04T15:32:15;35.90;44.50
15343;DHT22;7771;48.478;8.936;2022-08-04T15:34:50;38.40;45.40
15343;DHT22;7771;48.478;8.936;2022-08-04T15:37:23;38.40;45.40
15343;DHT22;7771;48.478;8.936;2022-08-04T15:39:47;38.30;45.60
15343;DHT22;7771;48.478;8.936;2022-08-04T15:42:14;38.30;45.80
15343;DHT22;7771;48.478;8.936;2022-08-04T15:44:57;38.30;46.60
15343;DHT22;7771;48.478;8.936;2022-08-04T15:47:20;38.30;47.40
15343;DHT22;7771;48.478;8.936;2022-08-04T15:50:00;38.10;47.70
15343;DHT22;7771;48.478;8.936;2022-08-04T15:52:14;38.20;48.30
15343;DHT22;7771;48.478;8.936;2022-08-04T15:54:41;38.00;48.00
15343;DHT22;7771;48.478;8.936;2022-08-04T15:57:07;38.00;48.30
15343;DHT22;7771;48.478;8.936;2022-08-04T16:02:37;37.80;48.00
15343;DHT22;7771;48.478;8.936;2022-08-04T16:05:28;37.70;48.50
15343;DHT22;7771;48.478;8.936;2022-08-04T16:07:59;37.50;48.40
15343;DHT22;7771;48.478;8.936;2022-08-04T16:10:41;37.40;48.80
15343;DHT22;7771;48.478;8.936;2022-08-04T16:13:08;37.20;49.30
15343;DHT22;7771;48.478;8.936;2022-08-04T16:15:42;37.20;49.30
15343;DHT22;7771;48.478;8.936;2022-08-04T16:18:11;37.10;49.60
15343;DHT22;7771;48.478;8.936;2022-08-04T16:20:36;37.10;49.70
15343;DHT22;7771;48.478;8.936;2022-08-04T16:25:57;36.90;50.10
15343;DHT22;7771;48.478;8.936;2022-08-04T16:28:38;36.80;50.10
15343;DHT22;7771;48.478;8.936;2022-08-04T16:31:05;36.80;50.10
15343;DHT22;7771;48.478;8.936;2022-08-04T16:33:32;37.10;49.40
15343;DHT22;7771;48.478;8.936;2022-08-04T16:35:59;37.00;49.40
15343;DHT22;7771;48.478;8.936;2022-08-04T16:38:26;37.20;49.80
15343;DHT22;7771;48.478;8.936;2022-08-04T16:40:55;37.20;50.00
15343;DHT22;7771;48.478;8.936;2022-08-04T16:43:22;37.20;50.00
15343;DHT22;7771;48.478;8.936;2022-08-04T16:45:53;37.00;50.60
15343;DHT22;7771;48.478;8.936;2022-08-04T16:48:22;37.00;50.60
15343;DHT22;7771;48.478;8.936;2022-08-04T16:50:50;36.90;50.40
15343;DHT22;7771;48.478;8.936;2022-08-04T16:53:16;36.70;50.40
15343;DHT22;7771;48.478;8.936;2022-08-04T16:55:45;36.40;50.20
15343;DHT22;7771;48.478;8.936;2022-08-04T16:58:11;36.30;51.10
15343;DHT22;7771;48.478;8.936;2022-08-04T17:00:39;36.20;51.60
15343;DHT22;7771;48.478;8.936;2022-08-04T17:03:09;36.10;51.60
15343;DHT22;7771;48.478;8.936;2022-08-04T17:05:34;36.00;51.60
15343;DHT22;7771;48.478;8.936;2022-08-04T17:08:01;35.90;51.70
15343;DHT22;7771;48.478;8.936;2022-08-04T17:10:32;35.80;51.70
15343;DHT22;7771;48.478;8.936;2022-08-04T17:12:58;35.80;51.40
15343;DHT22;7771;48.478;8.936;2022-08-04T17:15:24;35.60;51.70
15343;DHT22;7771;48.478;8.936;2022-08-04T17:17:51;35.70;52.30
15343;DHT22;7771;48.478;8.936;2022-08-04T17:20:24;35.60;52.00
15343;DHT22;7771;48.478;8.936;2022-08-04T17:22:44;35.50;52.50
15343;DHT22;7771;48.478;8.936;2022-08-04T17:25:10;35.40;52.60
15343;DHT22;7771;48.478;8.936;2022-08-04T17:27:38;35.20;53.20